KMY weather

Moser Bay Seaplane Base
Moser Bay, Alaska, United States

Public forecast

Using degrees Fahrenheit for public forecast. Weather courtesy of forecast.io.

METAR (pilot weather report)

Closest report is Akhiok Airport, 5.4 nm (9.9 km) SSW. Retrieved 2019/07/17 23:56 UTC (40 minutes ago):

PAKH 172356Z AUTO 30018G26KT 10SM CLR 18/13 A2979 RMK AO2 PK WND 31028/2305 SLP088 T01830128 10183 20139 51007 $

TAF (pilot weather forecast)

Forecast is more than 12 hours old.

Closest forecast is Kodiak Airport, 68.9 nm (127.6 km) NE. Retrieved 2019/07/17 00:42 UTC (24 hours ago):

TAF PADQ 172339Z 1800/1824 30010G18KT P6SM SCT100 FM180900 30010KT P6SM SCT040 BKN080